sensor_id;sensor_type;location;lat;lon;timestamp;P1;durP1;ratioP1;P2;durP2;ratioP2
47429;SDS011;33181;49.246;7.372;2023-04-24T00:00:28;3.90;;;2.03;;
47429;SDS011;33181;49.246;7.372;2023-04-24T00:02:54;3.50;;;2.40;;
47429;SDS011;33181;49.246;7.372;2023-04-24T00:05:21;5.67;;;2.43;;
47429;SDS011;33181;49.246;7.372;2023-04-24T00:07:48;3.43;;;2.40;;
47429;SDS011;33181;49.246;7.372;2023-04-24T00:10:14;5.77;;;2.63;;
47429;SDS011;33181;49.246;7.372;2023-04-24T00:12:39;2.73;;;2.10;;
47429;SDS011;33181;49.246;7.372;2023-04-24T00:15:05;3.20;;;2.03;;
47429;SDS011;33181;49.246;7.372;2023-04-24T00:17:32;6.13;;;2.23;;
47429;SDS011;33181;49.246;7.372;2023-04-24T00:19:58;4.43;;;2.30;;
47429;SDS011;33181;49.246;7.372;2023-04-24T00:22:24;3.43;;;2.27;;
47429;SDS011;33181;49.246;7.372;2023-04-24T00:24:51;5.23;;;2.27;;
47429;SDS011;33181;49.246;7.372;2023-04-24T00:27:18;3.33;;;2.27;;
47429;SDS011;33181;49.246;7.372;2023-04-24T00:29:43;2.53;;;1.90;;
47429;SDS011;33181;49.246;7.372;2023-04-24T00:32:09;4.13;;;2.13;;
47429;SDS011;33181;49.246;7.372;2023-04-24T00:34:36;4.40;;;2.37;;
47429;SDS011;33181;49.246;7.372;2023-04-24T00:37:02;3.90;;;2.50;;
47429;SDS011;33181;49.246;7.372;2023-04-24T00:39:28;3.70;;;2.23;;
47429;SDS011;33181;49.246;7.372;2023-04-24T00:41:54;4.73;;;2.40;;
47429;SDS011;33181;49.246;7.372;2023-04-24T00:44:20;6.67;;;2.33;;
47429;SDS011;33181;49.246;7.372;2023-04-24T00:46:46;3.93;;;2.20;;
47429;SDS011;33181;49.246;7.372;2023-04-24T00:49:17;3.27;;;2.23;;
47429;SDS011;33181;49.246;7.372;2023-04-24T00:51:44;5.60;;;2.47;;
47429;SDS011;33181;49.246;7.372;2023-04-24T00:54:11;8.67;;;2.40;;
47429;SDS011;33181;49.246;7.372;2023-04-24T00:56:37;4.30;;;2.20;;
47429;SDS011;33181;49.246;7.372;2023-04-24T00:59:05;5.43;;;2.30;;
47429;SDS011;33181;49.246;7.372;2023-04-24T01:01:31;3.73;;;2.03;;
47429;SDS011;33181;49.246;7.372;2023-04-24T01:03:57;3.80;;;2.23;;
47429;SDS011;33181;49.246;7.372;2023-04-24T01:06:23;4.70;;;2.20;;
47429;SDS011;33181;49.246;7.372;2023-04-24T01:08:54;4.40;;;2.30;;
47429;SDS011;33181;49.246;7.372;2023-04-24T01:11:23;3.90;;;2.10;;
47429;SDS011;33181;49.246;7.372;2023-04-24T01:13:50;11.17;;;2.57;;
47429;SDS011;33181;49.246;7.372;2023-04-24T01:16:17;4.80;;;2.27;;
47429;SDS011;33181;49.246;7.372;2023-04-24T01:18:45;3.33;;;2.10;;
47429;SDS011;33181;49.246;7.372;2023-04-24T01:21:13;3.47;;;2.13;;
47429;SDS011;33181;49.246;7.372;2023-04-24T01:23:43;4.30;;;2.23;;
47429;SDS011;33181;49.246;7.372;2023-04-24T01:26:10;4.67;;;2.50;;
47429;SDS011;33181;49.246;7.372;2023-04-24T01:28:37;4.13;;;2.30;;
47429;SDS011;33181;49.246;7.372;2023-04-24T01:31:03;4.63;;;2.50;;
47429;SDS011;33181;49.246;7.372;2023-04-24T01:33:29;13.87;;;2.73;;
47429;SDS011;33181;49.246;7.372;2023-04-24T01:35:58;3.37;;;2.80;;
47429;SDS011;33181;49.246;7.372;2023-04-24T01:38:24;3.70;;;3.00;;
47429;SDS011;33181;49.246;7.372;2023-04-24T01:40:50;3.63;;;3.00;;
47429;SDS011;33181;49.246;7.372;2023-04-24T01:43:17;3.90;;;2.93;;
47429;SDS011;33181;49.246;7.372;2023-04-24T01:45:43;5.07;;;3.10;;
47429;SDS011;33181;49.246;7.372;2023-04-24T01:48:10;4.43;;;3.40;;
47429;SDS011;33181;49.246;7.372;2023-04-24T01:50:37;5.40;;;3.50;;
47429;SDS011;33181;49.246;7.372;2023-04-24T01:53:03;4.43;;;3.40;;
47429;SDS011;33181;49.246;7.372;2023-04-24T01:55:29;5.13;;;3.50;;
47429;SDS011;33181;49.246;7.372;2023-04-24T01:57:55;5.07;;;3.50;;
47429;SDS011;33181;49.246;7.372;2023-04-24T02:00:22;8.50;;;3.70;;
47429;SDS011;33181;49.246;7.372;2023-04-24T02:02:49;5.80;;;3.60;;
47429;SDS011;33181;49.246;7.372;2023-04-24T02:05:15;4.80;;;3.90;;
47429;SDS011;33181;49.246;7.372;2023-04-24T02:07:41;4.77;;;3.70;;
47429;SDS011;33181;49.246;7.372;2023-04-24T02:10:13;3.93;;;3.47;;
47429;SDS011;33181;49.246;7.372;2023-04-24T02:12:41;5.47;;;3.80;;
47429;SDS011;33181;49.246;7.372;2023-04-24T02:15:07;4.83;;;3.70;;
47429;SDS011;33181;49.246;7.372;2023-04-24T02:17:33;7.00;;;3.73;;
47429;SDS011;33181;49.246;7.372;2023-04-24T02:19:59;4.83;;;3.53;;
47429;SDS011;33181;49.246;7.372;2023-04-24T02:22:25;10.83;;;4.27;;
47429;SDS011;33181;49.246;7.372;2023-04-24T02:24:50;4.70;;;3.97;;
47429;SDS011;33181;49.246;7.372;2023-04-24T02:27:17;4.50;;;4.00;;
47429;SDS011;33181;49.246;7.372;2023-04-24T02:29:42;5.90;;;4.13;;
47429;SDS011;33181;49.246;7.372;2023-04-24T02:32:08;3.97;;;3.57;;
47429;SDS011;33181;49.246;7.372;2023-04-24T02:34:37;5.10;;;4.13;;
47429;SDS011;33181;49.246;7.372;2023-04-24T02:37:03;6.20;;;4.00;;
47429;SDS011;33181;49.246;7.372;2023-04-24T02:39:29;4.47;;;3.60;;
47429;SDS011;33181;49.246;7.372;2023-04-24T02:41:55;5.20;;;3.70;;
47429;SDS011;33181;49.246;7.372;2023-04-24T02:44:21;4.57;;;3.90;;
47429;SDS011;33181;49.246;7.372;2023-04-24T02:46:47;6.80;;;4.10;;
47429;SDS011;33181;49.246;7.372;2023-04-24T02:49:13;6.60;;;4.27;;
47429;SDS011;33181;49.246;7.372;2023-04-24T02:51:39;6.10;;;4.20;;
47429;SDS011;33181;49.246;7.372;2023-04-24T02:54:06;6.33;;;4.20;;
47429;SDS011;33181;49.246;7.372;2023-04-24T02:56:34;5.13;;;4.43;;
47429;SDS011;33181;49.246;7.372;2023-04-24T02:59:00;6.93;;;5.07;;
47429;SDS011;33181;49.246;7.372;2023-04-24T03:01:26;9.37;;;5.17;;
47429;SDS011;33181;49.246;7.372;2023-04-24T03:03:52;7.50;;;5.20;;
47429;SDS011;33181;49.246;7.372;2023-04-24T03:06:18;7.80;;;5.60;;
47429;SDS011;33181;49.246;7.372;2023-04-24T03:08:44;7.60;;;5.60;;
47429;SDS011;33181;49.246;7.372;2023-04-24T03:11:09;6.87;;;5.80;;
47429;SDS011;33181;49.246;7.372;2023-04-24T03:13:35;10.83;;;6.33;;
47429;SDS011;33181;49.246;7.372;2023-04-24T03:16:01;9.07;;;6.27;;
47429;SDS011;33181;49.246;7.372;2023-04-24T03:18:27;10.37;;;6.70;;
47429;SDS011;33181;49.246;7.372;2023-04-24T03:20:53;9.63;;;6.00;;
47429;SDS011;33181;49.246;7.372;2023-04-24T03:23:18;9.03;;;6.70;;
47429;SDS011;33181;49.246;7.372;2023-04-24T03:25:45;8.77;;;6.47;;
47429;SDS011;33181;49.246;7.372;2023-04-24T03:28:10;10.13;;;6.93;;
47429;SDS011;33181;49.246;7.372;2023-04-24T03:30:36;8.97;;;6.50;;
47429;SDS011;33181;49.246;7.372;2023-04-24T03:33:02;7.93;;;6.23;;
47429;SDS011;33181;49.246;7.372;2023-04-24T03:35:28;10.43;;;6.93;;
47429;SDS011;33181;49.246;7.372;2023-04-24T03:37:53;10.17;;;7.70;;
47429;SDS011;33181;49.246;7.372;2023-04-24T03:40:20;10.27;;;7.70;;
47429;SDS011;33181;49.246;7.372;2023-04-24T03:42:45;9.53;;;7.17;;
47429;SDS011;33181;49.246;7.372;2023-04-24T03:45:11;10.23;;;7.40;;
47429;SDS011;33181;49.246;7.372;2023-04-24T03:47:37;10.87;;;7.33;;
47429;SDS011;33181;49.246;7.372;2023-04-24T03:50:03;9.40;;;6.80;;
47429;SDS011;33181;49.246;7.372;2023-04-24T03:52:29;11.40;;;7.73;;
47429;SDS011;33181;49.246;7.372;2023-04-24T03:54:55;8.90;;;6.93;;
47429;SDS011;33181;49.246;7.372;2023-04-24T03:57:21;9.50;;;7.20;;
47429;SDS011;33181;49.246;7.372;2023-04-24T03:59:47;10.70;;;7.63;;
47429;SDS011;33181;49.246;7.372;2023-04-24T04:02:13;10.73;;;7.53;;
47429;SDS011;33181;49.246;7.372;2023-04-24T04:04:39;11.47;;;8.20;;
47429;SDS011;33181;49.246;7.372;2023-04-24T04:07:04;8.80;;;7.47;;
47429;SDS011;33181;49.246;7.372;2023-04-24T04:09:31;11.07;;;7.10;;
47429;SDS011;33181;49.246;7.372;2023-04-24T04:11:58;10.00;;;7.53;;
47429;SDS011;33181;49.246;7.372;2023-04-24T04:14:25;9.60;;;7.53;;
47429;SDS011;33181;49.246;7.372;2023-04-24T04:16:52;10.40;;;7.23;;
47429;SDS011;33181;49.246;7.372;2023-04-24T04:19:18;9.30;;;7.37;;
47429;SDS011;33181;49.246;7.372;2023-04-24T04:21:43;10.23;;;7.10;;
47429;SDS011;33181;49.246;7.372;2023-04-24T04:24:17;9.83;;;7.53;;
47429;SDS011;33181;49.246;7.372;2023-04-24T04:26:45;9.63;;;6.87;;
47429;SDS011;33181;49.246;7.372;2023-04-24T04:29:12;10.80;;;7.73;;
47429;SDS011;33181;49.246;7.372;2023-04-24T04:31:38;10.53;;;6.97;;
47429;SDS011;33181;49.246;7.372;2023-04-24T04:34:04;10.53;;;7.17;;
47429;SDS011;33181;49.246;7.372;2023-04-24T04:36:30;10.57;;;7.37;;
47429;SDS011;33181;49.246;7.372;2023-04-24T04:38:57;9.10;;;7.33;;
47429;SDS011;33181;49.246;7.372;2023-04-24T04:41:24;11.73;;;7.77;;
47429;SDS011;33181;49.246;7.372;2023-04-24T04:43:50;9.53;;;6.93;;
47429;SDS011;33181;49.246;7.372;2023-04-24T04:46:16;12.13;;;7.33;;
47429;SDS011;33181;49.246;7.372;2023-04-24T04:48:41;11.40;;;7.30;;
47429;SDS011;33181;49.246;7.372;2023-04-24T04:51:08;11.27;;;7.70;;
47429;SDS011;33181;49.246;7.372;2023-04-24T04:53:33;10.80;;;7.07;;
47429;SDS011;33181;49.246;7.372;2023-04-24T04:56:00;13.77;;;7.93;;
47429;SDS011;33181;49.246;7.372;2023-04-24T04:58:25;9.83;;;6.90;;
47429;SDS011;33181;49.246;7.372;2023-04-24T05:00:52;9.80;;;7.30;;
47429;SDS011;33181;49.246;7.372;2023-04-24T05:03:18;13.10;;;7.50;;
47429;SDS011;33181;49.246;7.372;2023-04-24T05:05:43;11.17;;;7.80;;
47429;SDS011;33181;49.246;7.372;2023-04-24T05:08:10;9.37;;;7.23;;
47429;SDS011;33181;49.246;7.372;2023-04-24T05:10:35;11.50;;;6.97;;
47429;SDS011;33181;49.246;7.372;2023-04-24T05:13:02;9.20;;;6.97;;
47429;SDS011;33181;49.246;7.372;2023-04-24T05:15:29;8.30;;;6.90;;
47429;SDS011;33181;49.246;7.372;2023-04-24T05:17:55;9.63;;;6.13;;
47429;SDS011;33181;49.246;7.372;2023-04-24T05:20:21;7.30;;;5.50;;
47429;SDS011;33181;49.246;7.372;2023-04-24T05:22:47;6.47;;;5.20;;
47429;SDS011;33181;49.246;7.372;2023-04-24T05:25:14;9.53;;;4.97;;
47429;SDS011;33181;49.246;7.372;2023-04-24T05:27:40;5.83;;;4.63;;
47429;SDS011;33181;49.246;7.372;2023-04-24T05:30:06;6.87;;;4.77;;
47429;SDS011;33181;49.246;7.372;2023-04-24T05:32:33;5.93;;;4.90;;
47429;SDS011;33181;49.246;7.372;2023-04-24T05:34:58;6.27;;;4.60;;
47429;SDS011;33181;49.246;7.372;2023-04-24T05:37:24;7.30;;;5.13;;
47429;SDS011;33181;49.246;7.372;2023-04-24T05:39:51;6.57;;;4.97;;
47429;SDS011;33181;49.246;7.372;2023-04-24T05:42:16;5.90;;;4.87;;
47429;SDS011;33181;49.246;7.372;2023-04-24T05:44:42;7.73;;;5.20;;
47429;SDS011;33181;49.246;7.372;2023-04-24T05:47:08;8.10;;;5.30;;
47429;SDS011;33181;49.246;7.372;2023-04-24T05:49:36;7.70;;;5.87;;
47429;SDS011;33181;49.246;7.372;2023-04-24T05:52:02;8.30;;;5.40;;
47429;SDS011;33181;49.246;7.372;2023-04-24T05:54:29;7.13;;;5.70;;
47429;SDS011;33181;49.246;7.372;2023-04-24T05:56:55;7.03;;;5.50;;
47429;SDS011;33181;49.246;7.372;2023-04-24T05:59:21;9.20;;;6.40;;
47429;SDS011;33181;49.246;7.372;2023-04-24T06:01:47;7.73;;;6.13;;
47429;SDS011;33181;49.246;7.372;2023-04-24T06:04:12;11.07;;;6.00;;
47429;SDS011;33181;49.246;7.372;2023-04-24T06:06:38;7.50;;;6.03;;
47429;SDS011;33181;49.246;7.372;2023-04-24T06:09:05;10.87;;;7.60;;
47429;SDS011;33181;49.246;7.372;2023-04-24T06:11:31;9.53;;;6.40;;
47429;SDS011;33181;49.246;7.372;2023-04-24T06:13:57;8.77;;;6.10;;
47429;SDS011;33181;49.246;7.372;2023-04-24T06:16:23;9.60;;;6.17;;
47429;SDS011;33181;49.246;7.372;2023-04-24T06:18:49;7.80;;;5.93;;
47429;SDS011;33181;49.246;7.372;2023-04-24T06:21:16;7.97;;;5.90;;
47429;SDS011;33181;49.246;7.372;2023-04-24T06:23:42;9.00;;;5.87;;
47429;SDS011;33181;49.246;7.372;2023-04-24T06:26:08;9.00;;;5.77;;
47429;SDS011;33181;49.246;7.372;2023-04-24T06:28:34;7.87;;;5.67;;
47429;SDS011;33181;49.246;7.372;2023-04-24T06:31:00;14.80;;;6.60;;
47429;SDS011;33181;49.246;7.372;2023-04-24T06:33:26;8.47;;;5.93;;
47429;SDS011;33181;49.246;7.372;2023-04-24T06:35:52;8.60;;;6.23;;
47429;SDS011;33181;49.246;7.372;2023-04-24T06:38:17;7.90;;;6.00;;
47429;SDS011;33181;49.246;7.372;2023-04-24T06:40:43;8.23;;;6.23;;
47429;SDS011;33181;49.246;7.372;2023-04-24T06:43:10;11.77;;;6.60;;
47429;SDS011;33181;49.246;7.372;2023-04-24T06:45:36;8.03;;;6.00;;
47429;SDS011;33181;49.246;7.372;2023-04-24T06:48:03;9.47;;;5.70;;
47429;SDS011;33181;49.246;7.372;2023-04-24T06:50:29;7.80;;;5.37;;
47429;SDS011;33181;49.246;7.372;2023-04-24T06:52:55;7.43;;;5.73;;
47429;SDS011;33181;49.246;7.372;2023-04-24T06:55:21;8.70;;;5.70;;
47429;SDS011;33181;49.246;7.372;2023-04-24T06:57:46;6.97;;;5.37;;
47429;SDS011;33181;49.246;7.372;2023-04-24T07:00:12;7.40;;;5.20;;
47429;SDS011;33181;49.246;7.372;2023-04-24T07:02:39;6.50;;;5.57;;
47429;SDS011;33181;49.246;7.372;2023-04-24T07:05:05;5.53;;;4.93;;
47429;SDS011;33181;49.246;7.372;2023-04-24T07:07:33;5.20;;;4.70;;
47429;SDS011;33181;49.246;7.372;2023-04-24T07:09:59;6.00;;;4.80;;
47429;SDS011;33181;49.246;7.372;2023-04-24T07:12:25;11.03;;;5.40;;
47429;SDS011;33181;49.246;7.372;2023-04-24T07:14:51;6.43;;;5.07;;
47429;SDS011;33181;49.246;7.372;2023-04-24T07:17:17;10.43;;;5.47;;
47429;SDS011;33181;49.246;7.372;2023-04-24T07:19:43;8.90;;;5.23;;
47429;SDS011;33181;49.246;7.372;2023-04-24T07:22:09;8.30;;;5.30;;
47429;SDS011;33181;49.246;7.372;2023-04-24T07:24:41;7.50;;;5.43;;
47429;SDS011;33181;49.246;7.372;2023-04-24T07:27:10;9.33;;;5.27;;
47429;SDS011;33181;49.246;7.372;2023-04-24T07:29:36;7.10;;;5.20;;
47429;SDS011;33181;49.246;7.372;2023-04-24T07:32:03;7.60;;;5.73;;
47429;SDS011;33181;49.246;7.372;2023-04-24T07:34:29;5.93;;;4.70;;
47429;SDS011;33181;49.246;7.372;2023-04-24T07:36:54;8.13;;;4.93;;
47429;SDS011;33181;49.246;7.372;2023-04-24T07:39:20;7.40;;;5.00;;
47429;SDS011;33181;49.246;7.372;2023-04-24T07:41:46;8.47;;;4.73;;
47429;SDS011;33181;49.246;7.372;2023-04-24T07:44:12;7.23;;;4.50;;
47429;SDS011;33181;49.246;7.372;2023-04-24T07:46:38;6.20;;;5.00;;
47429;SDS011;33181;49.246;7.372;2023-04-24T07:49:04;6.70;;;4.83;;
47429;SDS011;33181;49.246;7.372;2023-04-24T07:51:30;7.33;;;4.87;;
47429;SDS011;33181;49.246;7.372;2023-04-24T07:53:59;6.90;;;4.73;;
47429;SDS011;33181;49.246;7.372;2023-04-24T07:56:26;7.13;;;4.43;;
47429;SDS011;33181;49.246;7.372;2023-04-24T07:58:51;6.13;;;5.00;;
47429;SDS011;33181;49.246;7.372;2023-04-24T08:01:17;12.53;;;5.83;;
47429;SDS011;33181;49.246;7.372;2023-04-24T08:03:43;7.90;;;5.13;;
47429;SDS011;33181;49.246;7.372;2023-04-24T08:06:09;9.80;;;6.00;;
47429;SDS011;33181;49.246;7.372;2023-04-24T08:08:35;9.30;;;6.03;;
47429;SDS011;33181;49.246;7.372;2023-04-24T08:11:01;9.70;;;6.03;;
47429;SDS011;33181;49.246;7.372;2023-04-24T08:13:27;9.50;;;6.53;;
47429;SDS011;33181;49.246;7.372;2023-04-24T08:15:53;7.77;;;6.10;;
47429;SDS011;33181;49.246;7.372;2023-04-24T08:18:20;8.10;;;5.70;;
47429;SDS011;33181;49.246;7.372;2023-04-24T08:20:45;8.50;;;6.13;;
47429;SDS011;33181;49.246;7.372;2023-04-24T08:23:11;9.93;;;6.27;;
47429;SDS011;33181;49.246;7.372;2023-04-24T08:25:37;7.40;;;6.27;;
47429;SDS011;33181;49.246;7.372;2023-04-24T08:28:05;10.03;;;6.40;;
47429;SDS011;33181;49.246;7.372;2023-04-24T08:30:31;9.57;;;6.50;;
47429;SDS011;33181;49.246;7.372;2023-04-24T08:32:57;9.00;;;6.70;;
47429;SDS011;33181;49.246;7.372;2023-04-24T08:35:23;7.60;;;5.97;;
47429;SDS011;33181;49.246;7.372;2023-04-24T08:37:49;8.47;;;6.10;;
47429;SDS011;33181;49.246;7.372;2023-04-24T08:40:15;8.57;;;6.93;;
47429;SDS011;33181;49.246;7.372;2023-04-24T08:42:42;9.40;;;7.40;;
47429;SDS011;33181;49.246;7.372;2023-04-24T08:45:12;8.83;;;6.80;;
47429;SDS011;33181;49.246;7.372;2023-04-24T08:47:39;11.60;;;7.40;;
47429;SDS011;33181;49.246;7.372;2023-04-24T08:50:06;10.20;;;8.20;;
47429;SDS011;33181;49.246;7.372;2023-04-24T08:52:34;10.03;;;8.17;;
47429;SDS011;33181;49.246;7.372;2023-04-24T08:55:01;10.37;;;7.93;;
47429;SDS011;33181;49.246;7.372;2023-04-24T08:57:27;11.53;;;8.10;;
47429;SDS011;33181;49.246;7.372;2023-04-24T08:59:54;12.27;;;8.83;;
47429;SDS011;33181;49.246;7.372;2023-04-24T09:02:23;15.33;;;9.37;;
47429;SDS011;33181;49.246;7.372;2023-04-24T09:04:49;11.03;;;8.50;;
47429;SDS011;33181;49.246;7.372;2023-04-24T09:07:16;12.90;;;8.73;;
47429;SDS011;33181;49.246;7.372;2023-04-24T09:09:43;13.50;;;8.13;;
47429;SDS011;33181;49.246;7.372;2023-04-24T09:12:09;12.73;;;8.57;;
47429;SDS011;33181;49.246;7.372;2023-04-24T09:14:35;11.47;;;8.70;;
47429;SDS011;33181;49.246;7.372;2023-04-24T09:17:04;13.07;;;8.50;;
47429;SDS011;33181;49.246;7.372;2023-04-24T09:19:32;11.97;;;9.00;;
47429;SDS011;33181;49.246;7.372;2023-04-24T09:21:57;12.67;;;9.23;;
47429;SDS011;33181;49.246;7.372;2023-04-24T09:24:23;13.70;;;8.80;;
47429;SDS011;33181;49.246;7.372;2023-04-24T09:26:56;14.60;;;8.63;;
47429;SDS011;33181;49.246;7.372;2023-04-24T09:29:23;12.03;;;8.40;;
47429;SDS011;33181;49.246;7.372;2023-04-24T09:31:50;15.77;;;8.90;;
47429;SDS011;33181;49.246;7.372;2023-04-24T09:34:20;13.70;;;9.40;;
47429;SDS011;33181;49.246;7.372;2023-04-24T09:36:49;12.80;;;8.77;;
47429;SDS011;33181;49.246;7.372;2023-04-24T09:39:15;15.27;;;8.90;;
47429;SDS011;33181;49.246;7.372;2023-04-24T09:41:48;16.13;;;8.97;;
47429;SDS011;33181;49.246;7.372;2023-04-24T09:44:17;11.80;;;8.77;;
47429;SDS011;33181;49.246;7.372;2023-04-24T09:46:51;12.13;;;9.00;;
47429;SDS011;33181;49.246;7.372;2023-04-24T09:52:01;11.97;;;8.77;;
47429;SDS011;33181;49.246;7.372;2023-04-24T09:54:29;12.93;;;9.07;;
47429;SDS011;33181;49.246;7.372;2023-04-24T09:56:56;15.33;;;9.03;;
47429;SDS011;33181;49.246;7.372;2023-04-24T09:59:22;12.17;;;8.73;;
47429;SDS011;33181;49.246;7.372;2023-04-24T10:01:54;13.87;;;9.00;;
47429;SDS011;33181;49.246;7.372;2023-04-24T10:04:22;13.97;;;9.33;;
47429;SDS011;33181;49.246;7.372;2023-04-24T10:06:51;14.37;;;9.37;;
47429;SDS011;33181;49.246;7.372;2023-04-24T10:09:22;21.53;;;9.90;;
47429;SDS011;33181;49.246;7.372;2023-04-24T10:11:51;15.47;;;9.20;;
47429;SDS011;33181;49.246;7.372;2023-04-24T10:14:23;12.50;;;8.27;;
47429;SDS011;33181;49.246;7.372;2023-04-24T10:16:54;12.00;;;8.90;;
47429;SDS011;33181;49.246;7.372;2023-04-24T10:19:25;12.73;;;9.00;;
47429;SDS011;33181;49.246;7.372;2023-04-24T10:21:51;12.27;;;9.30;;
47429;SDS011;33181;49.246;7.372;2023-04-24T10:24:19;12.50;;;8.40;;
47429;SDS011;33181;49.246;7.372;2023-04-24T10:26:46;11.83;;;8.50;;
47429;SDS011;33181;49.246;7.372;2023-04-24T10:29:16;14.97;;;8.53;;
47429;SDS011;33181;49.246;7.372;2023-04-24T10:31:44;12.27;;;8.70;;
47429;SDS011;33181;49.246;7.372;2023-04-24T10:34:11;13.00;;;9.40;;
47429;SDS011;33181;49.246;7.372;2023-04-24T10:36:40;11.47;;;8.20;;
47429;SDS011;33181;49.246;7.372;2023-04-24T10:39:15;17.43;;;9.30;;
47429;SDS011;33181;49.246;7.372;2023-04-24T10:41:43;13.00;;;9.23;;
47429;SDS011;33181;49.246;7.372;2023-04-24T10:44:12;11.67;;;8.53;;
47429;SDS011;33181;49.246;7.372;2023-04-24T10:46:42;15.20;;;8.10;;
47429;SDS011;33181;49.246;7.372;2023-04-24T10:49:30;13.77;;;8.20;;
47429;SDS011;33181;49.246;7.372;2023-04-24T10:52:01;15.57;;;10.80;;
47429;SDS011;33181;49.246;7.372;2023-04-24T10:54:36;14.30;;;8.97;;
47429;SDS011;33181;49.246;7.372;2023-04-24T10:59:43;9.97;;;7.20;;
47429;SDS011;33181;49.246;7.372;2023-04-24T11:02:10;9.27;;;6.70;;
47429;SDS011;33181;49.246;7.372;2023-04-24T11:04:39;11.53;;;7.10;;
47429;SDS011;33181;49.246;7.372;2023-04-24T11:07:05;9.60;;;6.90;;
47429;SDS011;33181;49.246;7.372;2023-04-24T11:09:31;9.37;;;6.90;;
47429;SDS011;33181;49.246;7.372;2023-04-24T11:12:07;9.43;;;6.77;;
47429;SDS011;33181;49.246;7.372;2023-04-24T11:17:30;10.57;;;6.63;;
47429;SDS011;33181;49.246;7.372;2023-04-24T11:20:09;9.33;;;7.07;;
47429;SDS011;33181;49.246;7.372;2023-04-24T11:22:40;12.50;;;7.87;;
47429;SDS011;33181;49.246;7.372;2023-04-24T11:25:06;10.30;;;7.03;;
47429;SDS011;33181;49.246;7.372;2023-04-24T11:27:41;8.50;;;7.10;;
47429;SDS011;33181;49.246;7.372;2023-04-24T11:30:09;12.13;;;7.10;;
47429;SDS011;33181;49.246;7.372;2023-04-24T11:32:42;9.47;;;7.43;;
47429;SDS011;33181;49.246;7.372;2023-04-24T11:37:53;10.10;;;7.00;;
47429;SDS011;33181;49.246;7.372;2023-04-24T11:40:20;10.27;;;7.53;;
47429;SDS011;33181;49.246;7.372;2023-04-24T11:42:48;11.50;;;7.67;;
47429;SDS011;33181;49.246;7.372;2023-04-24T11:45:17;9.73;;;7.43;;
47429;SDS011;33181;49.246;7.372;2023-04-24T11:47:52;9.43;;;7.23;;
47429;SDS011;33181;49.246;7.372;2023-04-24T11:50:19;9.33;;;7.10;;
47429;SDS011;33181;49.246;7.372;2023-04-24T11:52:49;9.07;;;7.00;;
47429;SDS011;33181;49.246;7.372;2023-04-24T11:57:45;10.20;;;6.87;;
47429;SDS011;33181;49.246;7.372;2023-04-24T12:00:17;8.87;;;7.03;;
47429;SDS011;33181;49.246;7.372;2023-04-24T12:02:49;9.87;;;6.90;;
47429;SDS011;33181;49.246;7.372;2023-04-24T12:05:19;9.73;;;6.40;;
47429;SDS011;33181;49.246;7.372;2023-04-24T12:07:48;10.47;;;6.93;;
47429;SDS011;33181;49.246;7.372;2023-04-24T12:10:14;9.33;;;6.60;;
47429;SDS011;33181;49.246;7.372;2023-04-24T12:12:52;9.70;;;7.10;;
47429;SDS011;33181;49.246;7.372;2023-04-24T12:15:20;10.53;;;7.50;;
47429;SDS011;33181;49.246;7.372;2023-04-24T12:17:46;8.37;;;6.37;;
47429;SDS011;33181;49.246;7.372;2023-04-24T12:20:17;10.77;;;7.10;;
47429;SDS011;33181;49.246;7.372;2023-04-24T12:22:56;10.67;;;7.63;;
47429;SDS011;33181;49.246;7.372;2023-04-24T12:25:25;10.40;;;7.50;;
47429;SDS011;33181;49.246;7.372;2023-04-24T12:30:32;10.67;;;7.90;;
47429;SDS011;33181;49.246;7.372;2023-04-24T12:33:01;11.93;;;8.67;;
47429;SDS011;33181;49.246;7.372;2023-04-24T12:35:29;11.40;;;7.57;;
47429;SDS011;33181;49.246;7.372;2023-04-24T12:40:35;12.57;;;7.60;;
47429;SDS011;33181;49.246;7.372;2023-04-24T12:43:01;11.20;;;7.33;;
47429;SDS011;33181;49.246;7.372;2023-04-24T12:45:27;8.33;;;6.70;;
47429;SDS011;33181;49.246;7.372;2023-04-24T12:47:53;10.47;;;6.63;;
47429;SDS011;33181;49.246;7.372;2023-04-24T12:50:20;8.97;;;6.00;;
47429;SDS011;33181;49.246;7.372;2023-04-24T12:52:45;9.13;;;6.47;;
47429;SDS011;33181;49.246;7.372;2023-04-24T12:55:12;7.90;;;5.97;;
47429;SDS011;33181;49.246;7.372;2023-04-24T12:57:38;8.07;;;5.87;;
47429;SDS011;33181;49.246;7.372;2023-04-24T13:00:06;9.07;;;6.37;;
47429;SDS011;33181;49.246;7.372;2023-04-24T13:02:33;9.07;;;6.97;;
47429;SDS011;33181;49.246;7.372;2023-04-24T13:05:00;11.40;;;7.30;;
47429;SDS011;33181;49.246;7.372;2023-04-24T13:07:29;10.93;;;5.93;;
47429;SDS011;33181;49.246;7.372;2023-04-24T13:09:55;7.87;;;5.93;;
47429;SDS011;33181;49.246;7.372;2023-04-24T13:12:24;10.03;;;6.70;;
47429;SDS011;33181;49.246;7.372;2023-04-24T13:14:51;8.20;;;5.90;;
47429;SDS011;33181;49.246;7.372;2023-04-24T13:17:17;9.77;;;6.90;;
47429;SDS011;33181;49.246;7.372;2023-04-24T13:19:44;9.43;;;6.13;;
47429;SDS011;33181;49.246;7.372;2023-04-24T13:22:10;14.53;;;7.50;;
47429;SDS011;33181;49.246;7.372;2023-04-24T13:24:38;13.03;;;8.10;;
47429;SDS011;33181;49.246;7.372;2023-04-24T13:27:06;12.33;;;7.90;;
47429;SDS011;33181;49.246;7.372;2023-04-24T13:29:33;12.73;;;8.07;;
47429;SDS011;33181;49.246;7.372;2023-04-24T13:32:00;10.90;;;8.10;;
47429;SDS011;33181;49.246;7.372;2023-04-24T13:34:26;18.90;;;8.37;;
47429;SDS011;33181;49.246;7.372;2023-04-24T13:36:53;11.63;;;7.80;;
47429;SDS011;33181;49.246;7.372;2023-04-24T13:39:21;13.17;;;8.33;;
47429;SDS011;33181;49.246;7.372;2023-04-24T13:41:48;10.80;;;7.80;;
47429;SDS011;33181;49.246;7.372;2023-04-24T13:44:14;11.40;;;7.90;;
47429;SDS011;33181;49.246;7.372;2023-04-24T13:46:42;9.17;;;7.10;;
47429;SDS011;33181;49.246;7.372;2023-04-24T13:49:10;11.27;;;8.07;;
47429;SDS011;33181;49.246;7.372;2023-04-24T13:51:38;12.53;;;8.50;;
47429;SDS011;33181;49.246;7.372;2023-04-24T13:54:05;10.20;;;8.23;;
47429;SDS011;33181;49.246;7.372;2023-04-24T13:56:31;10.80;;;7.57;;
47429;SDS011;33181;49.246;7.372;2023-04-24T13:58:57;12.73;;;7.30;;
47429;SDS011;33181;49.246;7.372;2023-04-24T14:01:23;10.47;;;7.87;;
47429;SDS011;33181;49.246;7.372;2023-04-24T14:03:53;10.43;;;7.20;;
47429;SDS011;33181;49.246;7.372;2023-04-24T14:06:21;9.93;;;7.10;;
47429;SDS011;33181;49.246;7.372;2023-04-24T14:08:48;13.80;;;7.53;;
47429;SDS011;33181;49.246;7.372;2023-04-24T14:11:15;9.60;;;6.60;;
47429;SDS011;33181;49.246;7.372;2023-04-24T14:13:43;11.07;;;6.70;;
47429;SDS011;33181;49.246;7.372;2023-04-24T14:16:09;6.27;;;5.50;;
47429;SDS011;33181;49.246;7.372;2023-04-24T14:18:36;7.20;;;5.23;;
47429;SDS011;33181;49.246;7.372;2023-04-24T14:21:05;6.30;;;4.53;;
47429;SDS011;33181;49.246;7.372;2023-04-24T14:23:32;8.10;;;5.50;;
47429;SDS011;33181;49.246;7.372;2023-04-24T14:25:58;7.90;;;6.00;;
47429;SDS011;33181;49.246;7.372;2023-04-24T14:28:25;8.60;;;6.13;;
47429;SDS011;33181;49.246;7.372;2023-04-24T14:30:54;7.37;;;5.37;;
47429;SDS011;33181;49.246;7.372;2023-04-24T14:33:20;8.00;;;6.00;;
47429;SDS011;33181;49.246;7.372;2023-04-24T14:35:46;8.17;;;5.83;;
47429;SDS011;33181;49.246;7.372;2023-04-24T14:38:12;6.50;;;5.40;;
47429;SDS011;33181;49.246;7.372;2023-04-24T14:40:40;10.00;;;5.70;;
47429;SDS011;33181;49.246;7.372;2023-04-24T14:43:06;8.13;;;5.43;;
47429;SDS011;33181;49.246;7.372;2023-04-24T14:45:32;8.43;;;6.03;;
47429;SDS011;33181;49.246;7.372;2023-04-24T14:47:58;7.57;;;6.07;;
47429;SDS011;33181;49.246;7.372;2023-04-24T14:50:24;7.03;;;5.57;;
47429;SDS011;33181;49.246;7.372;2023-04-24T14:52:54;8.07;;;6.33;;
47429;SDS011;33181;49.246;7.372;2023-04-24T14:55:24;8.20;;;6.13;;
47429;SDS011;33181;49.246;7.372;2023-04-24T14:58:03;7.97;;;5.80;;
47429;SDS011;33181;49.246;7.372;2023-04-24T15:00:29;6.53;;;5.43;;